sensor_id;sensor_type;location;lat;lon;timestamp;P1;durP1;ratioP1;P2;durP2;ratioP2
57846;SDS011;43675;50.030;21.952;2022-12-26T00:01:57;47.45;;;42.88;;
57846;SDS011;43675;50.030;21.952;2022-12-26T00:04:23;50.08;;;45.45;;
57846;SDS011;43675;50.030;21.952;2022-12-26T00:06:49;49.15;;;44.60;;
57846;SDS011;43675;50.030;21.952;2022-12-26T00:09:15;49.60;;;45.00;;
57846;SDS011;43675;50.030;21.952;2022-12-26T00:11:41;50.98;;;46.48;;
57846;SDS011;43675;50.030;21.952;2022-12-26T00:14:09;47.50;;;42.98;;
57846;SDS011;43675;50.030;21.952;2022-12-26T00:16:38;47.27;;;42.78;;
57846;SDS011;43675;50.030;21.952;2022-12-26T00:19:05;48.33;;;43.65;;
57846;SDS011;43675;50.030;21.952;2022-12-26T00:21:31;48.58;;;44.33;;
57846;SDS011;43675;50.030;21.952;2022-12-26T00:23:58;47.55;;;43.00;;
57846;SDS011;43675;50.030;21.952;2022-12-26T00:26:25;47.03;;;42.93;;
57846;SDS011;43675;50.030;21.952;2022-12-26T00:28:53;46.75;;;42.65;;
57846;SDS011;43675;50.030;21.952;2022-12-26T00:31:21;46.60;;;42.58;;
57846;SDS011;43675;50.030;21.952;2022-12-26T00:33:51;46.05;;;41.83;;
57846;SDS011;43675;50.030;21.952;2022-12-26T00:36:22;44.63;;;40.85;;
57846;SDS011;43675;50.030;21.952;2022-12-26T00:38:50;43.35;;;39.55;;
57846;SDS011;43675;50.030;21.952;2022-12-26T00:41:16;41.65;;;38.05;;
57846;SDS011;43675;50.030;21.952;2022-12-26T00:43:44;41.23;;;37.73;;
57846;SDS011;43675;50.030;21.952;2022-12-26T00:46:10;42.03;;;38.17;;
57846;SDS011;43675;50.030;21.952;2022-12-26T00:48:36;41.60;;;38.00;;
57846;SDS011;43675;50.030;21.952;2022-12-26T00:51:02;40.65;;;37.08;;
57846;SDS011;43675;50.030;21.952;2022-12-26T00:53:29;41.30;;;37.80;;
57846;SDS011;43675;50.030;21.952;2022-12-26T00:55:55;47.00;;;43.13;;
57846;SDS011;43675;50.030;21.952;2022-12-26T00:58:21;46.02;;;42.33;;
57846;SDS011;43675;50.030;21.952;2022-12-26T01:00:48;49.58;;;45.58;;
57846;SDS011;43675;50.030;21.952;2022-12-26T01:03:15;46.95;;;43.13;;
57846;SDS011;43675;50.030;21.952;2022-12-26T01:05:42;46.70;;;42.80;;
57846;SDS011;43675;50.030;21.952;2022-12-26T01:08:10;47.40;;;43.17;;
57846;SDS011;43675;50.030;21.952;2022-12-26T01:10:39;46.53;;;42.73;;
57846;SDS011;43675;50.030;21.952;2022-12-26T01:13:05;46.02;;;42.13;;
57846;SDS011;43675;50.030;21.952;2022-12-26T01:15:31;47.03;;;43.05;;
57846;SDS011;43675;50.030;21.952;2022-12-26T01:17:57;49.03;;;45.12;;
57846;SDS011;43675;50.030;21.952;2022-12-26T01:20:24;48.15;;;44.40;;
57846;SDS011;43675;50.030;21.952;2022-12-26T01:22:50;46.53;;;42.67;;
57846;SDS011;43675;50.030;21.952;2022-12-26T01:25:16;45.63;;;41.92;;
57846;SDS011;43675;50.030;21.952;2022-12-26T01:27:42;46.73;;;42.83;;
57846;SDS011;43675;50.030;21.952;2022-12-26T01:30:08;44.65;;;41.02;;
57846;SDS011;43675;50.030;21.952;2022-12-26T01:32:35;45.63;;;41.75;;
57846;SDS011;43675;50.030;21.952;2022-12-26T01:35:01;46.53;;;42.62;;
57846;SDS011;43675;50.030;21.952;2022-12-26T01:37:27;46.50;;;42.50;;
57846;SDS011;43675;50.030;21.952;2022-12-26T01:39:52;45.70;;;41.80;;
57846;SDS011;43675;50.030;21.952;2022-12-26T01:42:20;44.75;;;41.02;;
57846;SDS011;43675;50.030;21.952;2022-12-26T01:47:48;47.00;;;43.33;;
57846;SDS011;43675;50.030;21.952;2022-12-26T01:50:27;49.05;;;44.83;;
57846;SDS011;43675;50.030;21.952;2022-12-26T01:52:58;48.55;;;44.45;;
57846;SDS011;43675;50.030;21.952;2022-12-26T01:55:26;49.95;;;45.65;;
57846;SDS011;43675;50.030;21.952;2022-12-26T01:57:59;51.37;;;47.17;;
57846;SDS011;43675;50.030;21.952;2022-12-26T02:00:29;46.48;;;42.40;;
57846;SDS011;43675;50.030;21.952;2022-12-26T02:02:56;45.10;;;41.10;;
57846;SDS011;43675;50.030;21.952;2022-12-26T02:05:23;44.80;;;41.08;;
57846;SDS011;43675;50.030;21.952;2022-12-26T02:07:50;44.55;;;40.90;;
57846;SDS011;43675;50.030;21.952;2022-12-26T02:10:16;43.33;;;39.58;;
57846;SDS011;43675;50.030;21.952;2022-12-26T02:12:45;43.58;;;40.12;;
57846;SDS011;43675;50.030;21.952;2022-12-26T02:15:14;44.15;;;40.45;;
57846;SDS011;43675;50.030;21.952;2022-12-26T02:17:41;44.05;;;40.43;;
57846;SDS011;43675;50.030;21.952;2022-12-26T02:31:06;44.70;;;40.85;;
57846;SDS011;43675;50.030;21.952;2022-12-26T02:44:21;43.55;;;39.88;;
57846;SDS011;43675;50.030;21.952;2022-12-26T02:47:06;42.70;;;39.00;;
57846;SDS011;43675;50.030;21.952;2022-12-26T02:52:04;42.15;;;38.45;;
57846;SDS011;43675;50.030;21.952;2022-12-26T02:57:02;46.30;;;42.60;;
57846;SDS011;43675;50.030;21.952;2022-12-26T03:02:08;48.58;;;44.53;;
57846;SDS011;43675;50.030;21.952;2022-12-26T03:04:36;48.50;;;44.50;;
57846;SDS011;43675;50.030;21.952;2022-12-26T03:07:07;46.75;;;42.93;;
57846;SDS011;43675;50.030;21.952;2022-12-26T03:09:46;45.25;;;41.33;;
57846;SDS011;43675;50.030;21.952;2022-12-26T03:14:51;44.20;;;40.38;;
57846;SDS011;43675;50.030;21.952;2022-12-26T03:17:30;44.48;;;40.88;;
57846;SDS011;43675;50.030;21.952;2022-12-26T03:20:05;46.73;;;42.80;;
57846;SDS011;43675;50.030;21.952;2022-12-26T03:22:44;45.30;;;41.40;;
57846;SDS011;43675;50.030;21.952;2022-12-26T03:25:13;43.28;;;39.67;;
57846;SDS011;43675;50.030;21.952;2022-12-26T03:27:41;43.05;;;39.42;;
57846;SDS011;43675;50.030;21.952;2022-12-26T03:30:07;44.73;;;40.98;;
57846;SDS011;43675;50.030;21.952;2022-12-26T03:32:41;45.67;;;41.98;;
57846;SDS011;43675;50.030;21.952;2022-12-26T03:35:04;45.10;;;41.23;;
57846;SDS011;43675;50.030;21.952;2022-12-26T03:37:40;46.77;;;42.88;;
57846;SDS011;43675;50.030;21.952;2022-12-26T03:45:25;38.28;;;34.78;;
57846;SDS011;43675;50.030;21.952;2022-12-26T03:50:58;38.83;;;35.43;;
57846;SDS011;43675;50.030;21.952;2022-12-26T03:53:24;39.73;;;36.28;;
57846;SDS011;43675;50.030;21.952;2022-12-26T03:56:12;40.20;;;36.75;;
57846;SDS011;43675;50.030;21.952;2022-12-26T04:01:23;42.70;;;38.80;;
57846;SDS011;43675;50.030;21.952;2022-12-26T04:03:51;42.00;;;38.00;;
57846;SDS011;43675;50.030;21.952;2022-12-26T04:06:21;43.17;;;39.18;;
57846;SDS011;43675;50.030;21.952;2022-12-26T04:08:52;44.25;;;40.17;;
57846;SDS011;43675;50.030;21.952;2022-12-26T04:11:21;44.15;;;39.88;;
57846;SDS011;43675;50.030;21.952;2022-12-26T04:13:50;45.55;;;40.95;;
57846;SDS011;43675;50.030;21.952;2022-12-26T04:16:23;46.23;;;41.75;;
57846;SDS011;43675;50.030;21.952;2022-12-26T04:18:52;46.65;;;42.38;;
57846;SDS011;43675;50.030;21.952;2022-12-26T04:24:12;47.25;;;42.93;;
57846;SDS011;43675;50.030;21.952;2022-12-26T04:26:42;46.50;;;42.03;;
57846;SDS011;43675;50.030;21.952;2022-12-26T04:29:09;46.60;;;42.20;;
57846;SDS011;43675;50.030;21.952;2022-12-26T04:31:46;47.48;;;43.28;;
57846;SDS011;43675;50.030;21.952;2022-12-26T04:34:23;45.55;;;41.45;;
57846;SDS011;43675;50.030;21.952;2022-12-26T04:36:50;45.50;;;41.53;;
57846;SDS011;43675;50.030;21.952;2022-12-26T04:39:28;43.98;;;40.08;;
57846;SDS011;43675;50.030;21.952;2022-12-26T04:41:57;42.88;;;38.98;;
57846;SDS011;43675;50.030;21.952;2022-12-26T04:44:24;42.58;;;38.67;;
57846;SDS011;43675;50.030;21.952;2022-12-26T04:46:53;43.50;;;39.60;;
57846;SDS011;43675;50.030;21.952;2022-12-26T04:49:21;42.83;;;39.13;;
57846;SDS011;43675;50.030;21.952;2022-12-26T04:51:47;44.00;;;40.20;;
57846;SDS011;43675;50.030;21.952;2022-12-26T04:54:13;46.42;;;42.43;;
57846;SDS011;43675;50.030;21.952;2022-12-26T04:56:39;47.45;;;43.10;;
57846;SDS011;43675;50.030;21.952;2022-12-26T04:59:05;44.13;;;40.10;;
57846;SDS011;43675;50.030;21.952;2022-12-26T05:01:31;46.02;;;42.13;;
57846;SDS011;43675;50.030;21.952;2022-12-26T05:03:57;47.10;;;43.00;;
57846;SDS011;43675;50.030;21.952;2022-12-26T05:06:23;46.83;;;42.73;;
57846;SDS011;43675;50.030;21.952;2022-12-26T05:08:49;46.23;;;42.03;;
57846;SDS011;43675;50.030;21.952;2022-12-26T05:11:15;45.92;;;41.92;;
57846;SDS011;43675;50.030;21.952;2022-12-26T05:13:41;44.55;;;40.63;;
57846;SDS011;43675;50.030;21.952;2022-12-26T05:16:07;46.18;;;42.17;;
57846;SDS011;43675;50.030;21.952;2022-12-26T05:18:33;52.58;;;47.75;;
57846;SDS011;43675;50.030;21.952;2022-12-26T05:21:00;47.17;;;42.85;;
57846;SDS011;43675;50.030;21.952;2022-12-26T05:23:26;49.42;;;44.83;;
57846;SDS011;43675;50.030;21.952;2022-12-26T05:25:53;51.70;;;46.55;;
57846;SDS011;43675;50.030;21.952;2022-12-26T05:28:19;48.38;;;43.83;;
57846;SDS011;43675;50.030;21.952;2022-12-26T05:30:45;47.40;;;43.00;;
57846;SDS011;43675;50.030;21.952;2022-12-26T05:33:11;47.35;;;42.80;;
57846;SDS011;43675;50.030;21.952;2022-12-26T05:35:37;47.00;;;42.45;;
57846;SDS011;43675;50.030;21.952;2022-12-26T05:38:04;47.15;;;42.73;;
57846;SDS011;43675;50.030;21.952;2022-12-26T05:40:30;47.00;;;42.65;;
57846;SDS011;43675;50.030;21.952;2022-12-26T05:42:56;45.48;;;41.05;;
57846;SDS011;43675;50.030;21.952;2022-12-26T05:45:22;45.60;;;41.30;;
57846;SDS011;43675;50.030;21.952;2022-12-26T05:47:48;42.78;;;38.73;;
57846;SDS011;43675;50.030;21.952;2022-12-26T05:50:14;45.12;;;41.13;;
57846;SDS011;43675;50.030;21.952;2022-12-26T05:52:40;45.33;;;41.30;;
57846;SDS011;43675;50.030;21.952;2022-12-26T05:55:06;45.90;;;41.68;;
57846;SDS011;43675;50.030;21.952;2022-12-26T05:57:32;46.35;;;42.27;;
57846;SDS011;43675;50.030;21.952;2022-12-26T05:59:58;46.90;;;42.55;;
57846;SDS011;43675;50.030;21.952;2022-12-26T06:02:24;45.50;;;41.48;;
57846;SDS011;43675;50.030;21.952;2022-12-26T06:04:50;46.58;;;42.25;;
57846;SDS011;43675;50.030;21.952;2022-12-26T06:07:16;45.70;;;41.77;;
57846;SDS011;43675;50.030;21.952;2022-12-26T06:09:42;48.90;;;44.35;;
57846;SDS011;43675;50.030;21.952;2022-12-26T06:12:08;45.78;;;41.70;;
57846;SDS011;43675;50.030;21.952;2022-12-26T06:14:33;43.83;;;40.05;;
57846;SDS011;43675;50.030;21.952;2022-12-26T06:16:59;44.50;;;40.65;;
57846;SDS011;43675;50.030;21.952;2022-12-26T06:19:25;43.00;;;39.20;;
57846;SDS011;43675;50.030;21.952;2022-12-26T06:21:51;44.55;;;40.45;;
57846;SDS011;43675;50.030;21.952;2022-12-26T06:24:17;46.95;;;42.55;;
57846;SDS011;43675;50.030;21.952;2022-12-26T06:26:43;46.33;;;42.13;;
57846;SDS011;43675;50.030;21.952;2022-12-26T06:29:09;43.00;;;38.78;;
57846;SDS011;43675;50.030;21.952;2022-12-26T06:31:35;45.12;;;41.13;;
57846;SDS011;43675;50.030;21.952;2022-12-26T06:34:01;44.88;;;40.38;;
57846;SDS011;43675;50.030;21.952;2022-12-26T06:36:27;44.77;;;40.95;;
57846;SDS011;43675;50.030;21.952;2022-12-26T06:38:54;52.35;;;46.37;;
57846;SDS011;43675;50.030;21.952;2022-12-26T06:41:20;54.10;;;46.25;;
57846;SDS011;43675;50.030;21.952;2022-12-26T06:43:47;56.30;;;48.78;;
57846;SDS011;43675;50.030;21.952;2022-12-26T06:46:14;51.10;;;45.52;;
57846;SDS011;43675;50.030;21.952;2022-12-26T06:48:42;43.85;;;39.38;;
57846;SDS011;43675;50.030;21.952;2022-12-26T06:51:09;44.93;;;40.38;;
57846;SDS011;43675;50.030;21.952;2022-12-26T06:53:37;44.13;;;39.95;;
57846;SDS011;43675;50.030;21.952;2022-12-26T06:56:07;45.80;;;41.13;;
57846;SDS011;43675;50.030;21.952;2022-12-26T06:58:34;47.78;;;42.17;;
57846;SDS011;43675;50.030;21.952;2022-12-26T07:01:04;44.13;;;38.75;;
57846;SDS011;43675;50.030;21.952;2022-12-26T07:03:34;44.77;;;40.00;;
57846;SDS011;43675;50.030;21.952;2022-12-26T07:06:01;43.80;;;39.40;;
57846;SDS011;43675;50.030;21.952;2022-12-26T07:08:31;48.40;;;42.13;;
57846;SDS011;43675;50.030;21.952;2022-12-26T07:10:57;41.83;;;37.50;;
57846;SDS011;43675;50.030;21.952;2022-12-26T07:13:23;42.80;;;37.20;;
57846;SDS011;43675;50.030;21.952;2022-12-26T07:15:49;39.98;;;35.90;;
57846;SDS011;43675;50.030;21.952;2022-12-26T07:18:15;38.13;;;34.38;;
57846;SDS011;43675;50.030;21.952;2022-12-26T07:20:41;37.53;;;34.10;;
57846;SDS011;43675;50.030;21.952;2022-12-26T07:23:07;39.23;;;35.50;;
57846;SDS011;43675;50.030;21.952;2022-12-26T07:25:32;36.73;;;33.42;;
57846;SDS011;43675;50.030;21.952;2022-12-26T07:28:01;36.05;;;32.73;;
57846;SDS011;43675;50.030;21.952;2022-12-26T07:30:27;139.88;;;65.90;;
57846;SDS011;43675;50.030;21.952;2022-12-26T07:32:53;45.65;;;40.75;;
57846;SDS011;43675;50.030;21.952;2022-12-26T07:35:19;41.28;;;37.38;;
57846;SDS011;43675;50.030;21.952;2022-12-26T07:37:45;37.93;;;34.10;;
57846;SDS011;43675;50.030;21.952;2022-12-26T07:40:11;35.78;;;32.45;;
57846;SDS011;43675;50.030;21.952;2022-12-26T07:42:37;37.58;;;34.05;;
57846;SDS011;43675;50.030;21.952;2022-12-26T07:45:03;42.70;;;38.40;;
57846;SDS011;43675;50.030;21.952;2022-12-26T07:47:30;48.50;;;43.28;;
57846;SDS011;43675;50.030;21.952;2022-12-26T07:49:56;38.65;;;35.05;;
57846;SDS011;43675;50.030;21.952;2022-12-26T07:52:22;48.73;;;41.75;;
57846;SDS011;43675;50.030;21.952;2022-12-26T07:54:48;43.38;;;39.05;;
57846;SDS011;43675;50.030;21.952;2022-12-26T07:57:13;38.65;;;34.95;;
57846;SDS011;43675;50.030;21.952;2022-12-26T07:59:42;38.90;;;35.28;;
57846;SDS011;43675;50.030;21.952;2022-12-26T08:02:08;41.88;;;38.15;;
57846;SDS011;43675;50.030;21.952;2022-12-26T08:04:35;37.95;;;34.80;;
57846;SDS011;43675;50.030;21.952;2022-12-26T08:07:01;34.80;;;31.62;;
57846;SDS011;43675;50.030;21.952;2022-12-26T08:09:27;37.10;;;33.90;;
57846;SDS011;43675;50.030;21.952;2022-12-26T08:11:53;38.88;;;35.43;;
57846;SDS011;43675;50.030;21.952;2022-12-26T08:14:18;34.65;;;31.45;;
57846;SDS011;43675;50.030;21.952;2022-12-26T08:16:44;34.05;;;31.02;;
57846;SDS011;43675;50.030;21.952;2022-12-26T08:19:10;32.05;;;29.18;;
57846;SDS011;43675;50.030;21.952;2022-12-26T08:21:36;31.90;;;28.90;;
57846;SDS011;43675;50.030;21.952;2022-12-26T08:24:02;34.55;;;31.52;;
57846;SDS011;43675;50.030;21.952;2022-12-26T08:26:28;29.57;;;26.87;;
57846;SDS011;43675;50.030;21.952;2022-12-26T08:31:22;33.02;;;30.05;;
57846;SDS011;43675;50.030;21.952;2022-12-26T08:33:48;33.42;;;30.32;;
57846;SDS011;43675;50.030;21.952;2022-12-26T08:36:15;32.08;;;29.18;;
57846;SDS011;43675;50.030;21.952;2022-12-26T08:38:41;30.70;;;28.00;;
57846;SDS011;43675;50.030;21.952;2022-12-26T08:41:07;34.63;;;31.30;;
57846;SDS011;43675;50.030;21.952;2022-12-26T08:43:33;33.92;;;31.25;;
57846;SDS011;43675;50.030;21.952;2022-12-26T08:46:00;29.82;;;27.13;;
57846;SDS011;43675;50.030;21.952;2022-12-26T08:51:02;30.30;;;27.85;;
57846;SDS011;43675;50.030;21.952;2022-12-26T08:53:29;32.10;;;29.37;;
57846;SDS011;43675;50.030;21.952;2022-12-26T08:55:56;29.35;;;26.95;;
57846;SDS011;43675;50.030;21.952;2022-12-26T08:58:22;29.80;;;27.22;;
57846;SDS011;43675;50.030;21.952;2022-12-26T09:00:49;32.88;;;30.05;;
57846;SDS011;43675;50.030;21.952;2022-12-26T09:03:15;31.00;;;28.27;;
57846;SDS011;43675;50.030;21.952;2022-12-26T09:05:41;35.92;;;32.40;;
57846;SDS011;43675;50.030;21.952;2022-12-26T09:08:07;34.95;;;31.85;;
57846;SDS011;43675;50.030;21.952;2022-12-26T09:10:34;30.77;;;28.07;;
57846;SDS011;43675;50.030;21.952;2022-12-26T09:13:00;31.87;;;29.23;;
57846;SDS011;43675;50.030;21.952;2022-12-26T09:15:25;31.57;;;28.67;;
57846;SDS011;43675;50.030;21.952;2022-12-26T09:17:55;27.27;;;24.80;;
57846;SDS011;43675;50.030;21.952;2022-12-26T09:20:20;27.35;;;24.85;;
57846;SDS011;43675;50.030;21.952;2022-12-26T09:22:46;27.40;;;25.12;;
57846;SDS011;43675;50.030;21.952;2022-12-26T09:25:12;27.58;;;25.30;;
57846;SDS011;43675;50.030;21.952;2022-12-26T09:27:38;27.70;;;25.20;;
57846;SDS011;43675;50.030;21.952;2022-12-26T09:30:04;27.22;;;24.92;;
57846;SDS011;43675;50.030;21.952;2022-12-26T09:32:32;33.00;;;29.90;;
57846;SDS011;43675;50.030;21.952;2022-12-26T09:34:58;28.32;;;25.90;;
57846;SDS011;43675;50.030;21.952;2022-12-26T09:37:24;27.22;;;24.80;;
57846;SDS011;43675;50.030;21.952;2022-12-26T09:39:50;29.27;;;26.48;;
57846;SDS011;43675;50.030;21.952;2022-12-26T09:44:59;27.62;;;24.98;;
57846;SDS011;43675;50.030;21.952;2022-12-26T09:50:13;27.20;;;24.47;;
57846;SDS011;43675;50.030;21.952;2022-12-26T09:52:48;28.15;;;25.62;;
57846;SDS011;43675;50.030;21.952;2022-12-26T09:57:50;25.92;;;23.73;;
57846;SDS011;43675;50.030;21.952;2022-12-26T10:00:19;27.67;;;25.20;;
57846;SDS011;43675;50.030;21.952;2022-12-26T10:02:48;27.73;;;25.32;;
57846;SDS011;43675;50.030;21.952;2022-12-26T10:05:18;28.95;;;26.35;;
57846;SDS011;43675;50.030;21.952;2022-12-26T10:08:12;29.23;;;26.27;;
57846;SDS011;43675;50.030;21.952;2022-12-26T10:10:27;27.62;;;25.02;;
57846;SDS011;43675;50.030;21.952;2022-12-26T10:12:55;28.35;;;25.80;;
57846;SDS011;43675;50.030;21.952;2022-12-26T10:28:48;27.65;;;25.05;;
57846;SDS011;43675;50.030;21.952;2022-12-26T10:31:24;27.30;;;24.85;;
57846;SDS011;43675;50.030;21.952;2022-12-26T10:33:53;27.02;;;24.35;;
57846;SDS011;43675;50.030;21.952;2022-12-26T10:36:31;27.25;;;24.75;;
57846;SDS011;43675;50.030;21.952;2022-12-26T10:39:23;27.00;;;24.75;;
57846;SDS011;43675;50.030;21.952;2022-12-26T10:41:52;27.48;;;25.12;;
57846;SDS011;43675;50.030;21.952;2022-12-26T10:44:20;28.42;;;26.00;;
57846;SDS011;43675;50.030;21.952;2022-12-26T10:49:20;40.03;;;32.85;;
57846;SDS011;43675;50.030;21.952;2022-12-26T10:51:48;42.17;;;34.30;;
57846;SDS011;43675;50.030;21.952;2022-12-26T10:54:16;47.17;;;36.33;;
57846;SDS011;43675;50.030;21.952;2022-12-26T10:56:47;33.85;;;30.50;;
57846;SDS011;43675;50.030;21.952;2022-12-26T10:59:16;54.80;;;40.38;;
57846;SDS011;43675;50.030;21.952;2022-12-26T11:01:44;68.65;;;47.43;;
57846;SDS011;43675;50.030;21.952;2022-12-26T11:04:19;51.55;;;40.65;;
57846;SDS011;43675;50.030;21.952;2022-12-26T11:06:43;55.48;;;43.40;;
57846;SDS011;43675;50.030;21.952;2022-12-26T11:12:00;50.63;;;39.53;;
57846;SDS011;43675;50.030;21.952;2022-12-26T11:17:11;40.60;;;36.17;;
57846;SDS011;43675;50.030;21.952;2022-12-26T11:22:43;35.30;;;31.87;;
57846;SDS011;43675;50.030;21.952;2022-12-26T11:27:44;31.23;;;28.10;;
57846;SDS011;43675;50.030;21.952;2022-12-26T11:32:48;33.25;;;30.05;;
57846;SDS011;43675;50.030;21.952;2022-12-26T11:35:33;33.83;;;30.72;;
57846;SDS011;43675;50.030;21.952;2022-12-26T11:38:00;30.50;;;27.60;;
57846;SDS011;43675;50.030;21.952;2022-12-26T11:40:29;31.48;;;28.57;;
57846;SDS011;43675;50.030;21.952;2022-12-26T11:42:57;32.98;;;29.87;;
57846;SDS011;43675;50.030;21.952;2022-12-26T11:45:27;33.00;;;30.00;;
57846;SDS011;43675;50.030;21.952;2022-12-26T11:47:56;31.10;;;28.20;;
57846;SDS011;43675;50.030;21.952;2022-12-26T11:50:25;31.62;;;28.38;;
57846;SDS011;43675;50.030;21.952;2022-12-26T12:03:26;35.23;;;31.73;;
57846;SDS011;43675;50.030;21.952;2022-12-26T12:09:13;31.00;;;27.90;;
57846;SDS011;43675;50.030;21.952;2022-12-26T12:14:28;34.45;;;31.17;;
57846;SDS011;43675;50.030;21.952;2022-12-26T12:19:44;31.37;;;28.38;;
57846;SDS011;43675;50.030;21.952;2022-12-26T12:27:38;29.90;;;26.95;;
57846;SDS011;43675;50.030;21.952;2022-12-26T12:38:35;29.55;;;26.65;;
57846;SDS011;43675;50.030;21.952;2022-12-26T12:41:08;30.97;;;28.00;;
57846;SDS011;43675;50.030;21.952;2022-12-26T12:46:34;44.88;;;33.73;;
57846;SDS011;43675;50.030;21.952;2022-12-26T12:52:01;43.63;;;37.83;;
57846;SDS011;43675;50.030;21.952;2022-12-26T13:05:19;37.00;;;33.10;;
57846;SDS011;43675;50.030;21.952;2022-12-26T13:07:59;36.40;;;32.45;;
57846;SDS011;43675;50.030;21.952;2022-12-26T13:10:24;35.55;;;31.75;;
57846;SDS011;43675;50.030;21.952;2022-12-26T13:12:51;39.98;;;33.23;;
57846;SDS011;43675;50.030;21.952;2022-12-26T13:25:56;49.42;;;38.13;;
57846;SDS011;43675;50.030;21.952;2022-12-26T13:28:33;56.95;;;39.70;;
57846;SDS011;43675;50.030;21.952;2022-12-26T13:31:00;69.05;;;46.65;;
57846;SDS011;43675;50.030;21.952;2022-12-26T13:33:26;54.65;;;39.10;;
57846;SDS011;43675;50.030;21.952;2022-12-26T13:38:22;52.80;;;39.30;;
57846;SDS011;43675;50.030;21.952;2022-12-26T13:40:56;55.25;;;39.98;;
57846;SDS011;43675;50.030;21.952;2022-12-26T13:43:24;46.85;;;37.13;;
57846;SDS011;43675;50.030;21.952;2022-12-26T13:45:51;60.25;;;42.65;;
57846;SDS011;43675;50.030;21.952;2022-12-26T13:50:56;51.70;;;40.08;;
57846;SDS011;43675;50.030;21.952;2022-12-26T13:56:00;42.45;;;37.80;;
57846;SDS011;43675;50.030;21.952;2022-12-26T14:01:32;55.15;;;43.98;;
57846;SDS011;43675;50.030;21.952;2022-12-26T14:06:36;52.30;;;42.17;;
57846;SDS011;43675;50.030;21.952;2022-12-26T14:11:51;59.35;;;46.58;;
57846;SDS011;43675;50.030;21.952;2022-12-26T14:28:21;47.90;;;42.95;;
57846;SDS011;43675;50.030;21.952;2022-12-26T14:36:40;48.65;;;43.15;;
57846;SDS011;43675;50.030;21.952;2022-12-26T14:44:40;45.08;;;40.52;;
57846;SDS011;43675;50.030;21.952;2022-12-26T14:47:09;52.20;;;46.30;;
57846;SDS011;43675;50.030;21.952;2022-12-26T14:49:40;54.50;;;48.30;;
57846;SDS011;43675;50.030;21.952;2022-12-26T14:54:52;53.48;;;47.53;;
57846;SDS011;43675;50.030;21.952;2022-12-26T14:57:39;54.58;;;47.85;;
57846;SDS011;43675;50.030;21.952;2022-12-26T15:05:38;72.30;;;55.17;;
57846;SDS011;43675;50.030;21.952;2022-12-26T15:13:24;48.50;;;43.58;;
57846;SDS011;43675;50.030;21.952;2022-12-26T15:16:09;49.90;;;42.73;;
57846;SDS011;43675;50.030;21.952;2022-12-26T15:21:43;46.08;;;41.50;;
57846;SDS011;43675;50.030;21.952;2022-12-26T15:24:21;43.02;;;39.00;;
57846;SDS011;43675;50.030;21.952;2022-12-26T15:30:00;45.48;;;41.05;;
57846;SDS011;43675;50.030;21.952;2022-12-26T15:40:25;40.03;;;36.25;;
57846;SDS011;43675;50.030;21.952;2022-12-26T15:51:10;42.53;;;38.23;;
57846;SDS011;43675;50.030;21.952;2022-12-26T16:02:01;41.95;;;37.75;;
57846;SDS011;43675;50.030;21.952;2022-12-26T16:09:47;41.77;;;37.73;;
57846;SDS011;43675;50.030;21.952;2022-12-26T16:12:23;40.98;;;36.98;;
57846;SDS011;43675;50.030;21.952;2022-12-26T16:17:39;40.83;;;36.70;;
57846;SDS011;43675;50.030;21.952;2022-12-26T16:22:44;40.05;;;36.28;;
57846;SDS011;43675;50.030;21.952;2022-12-26T16:25:12;38.15;;;34.63;;
57846;SDS011;43675;50.030;21.952;2022-12-26T16:27:46;39.45;;;35.80;;
57846;SDS011;43675;50.030;21.952;2022-12-26T16:30:15;40.28;;;36.68;;
57846;SDS011;43675;50.030;21.952;2022-12-26T16:32:46;41.10;;;36.95;;
57846;SDS011;43675;50.030;21.952;2022-12-26T16:35:23;41.75;;;37.45;;
57846;SDS011;43675;50.030;21.952;2022-12-26T16:37:48;41.65;;;37.40;;
57846;SDS011;43675;50.030;21.952;2022-12-26T16:43:04;37.73;;;34.08;;
57846;SDS011;43675;50.030;21.952;2022-12-26T16:45:33;36.80;;;33.33;;
57846;SDS011;43675;50.030;21.952;2022-12-26T16:48:03;39.80;;;35.80;;
57846;SDS011;43675;50.030;21.952;2022-12-26T16:50:30;37.70;;;33.88;;
57846;SDS011;43675;50.030;21.952;2022-12-26T16:53:00;37.58;;;33.85;;
57846;SDS011;43675;50.030;21.952;2022-12-26T16:58:02;38.25;;;34.25;;
57846;SDS011;43675;50.030;21.952;2022-12-26T17:00:30;38.48;;;34.85;;
57846;SDS011;43675;50.030;21.952;2022-12-26T17:02:56;37.73;;;34.10;;
57846;SDS011;43675;50.030;21.952;2022-12-26T17:05:31;38.28;;;34.48;;
57846;SDS011;43675;50.030;21.952;2022-12-26T17:08:00;38.58;;;34.88;;
57846;SDS011;43675;50.030;21.952;2022-12-26T17:10:31;40.43;;;36.45;;
57846;SDS011;43675;50.030;21.952;2022-12-26T17:13:02;39.90;;;36.17;;
57846;SDS011;43675;50.030;21.952;2022-12-26T17:15:30;41.50;;;37.60;;
57846;SDS011;43675;50.030;21.952;2022-12-26T17:17:58;40.88;;;37.25;;
57846;SDS011;43675;50.030;21.952;2022-12-26T17:20:31;41.10;;;37.25;;
57846;SDS011;43675;50.030;21.952;2022-12-26T17:22:56;39.27;;;35.63;;
57846;SDS011;43675;50.030;21.952;2022-12-26T17:25:23;39.27;;;35.28;;
57846;SDS011;43675;50.030;21.952;2022-12-26T17:30:37;41.48;;;37.53;;
57846;SDS011;43675;50.030;21.952;2022-12-26T17:33:10;41.95;;;38.15;;
57846;SDS011;43675;50.030;21.952;2022-12-26T17:35:38;42.15;;;37.95;;
57846;SDS011;43675;50.030;21.952;2022-12-26T17:38:08;41.53;;;37.38;;
57846;SDS011;43675;50.030;21.952;2022-12-26T17:40:40;44.15;;;39.50;;
57846;SDS011;43675;50.030;21.952;2022-12-26T17:45:39;43.48;;;39.03;;
57846;SDS011;43675;50.030;21.952;2022-12-26T17:48:08;48.10;;;42.93;;
57846;SDS011;43675;50.030;21.952;2022-12-26T17:50:36;40.45;;;36.48;;
57846;SDS011;43675;50.030;21.952;2022-12-26T17:53:05;41.37;;;37.20;;
57846;SDS011;43675;50.030;21.952;2022-12-26T17:55:33;41.35;;;37.03;;
57846;SDS011;43675;50.030;21.952;2022-12-26T17:57:59;38.85;;;35.05;;
57846;SDS011;43675;50.030;21.952;2022-12-26T18:00:26;40.92;;;36.75;;
57846;SDS011;43675;50.030;21.952;2022-12-26T18:02:54;39.53;;;35.92;;
57846;SDS011;43675;50.030;21.952;2022-12-26T18:05:21;42.15;;;38.05;;
57846;SDS011;43675;50.030;21.952;2022-12-26T18:07:48;41.95;;;37.90;;
57846;SDS011;43675;50.030;21.952;2022-12-26T18:10:16;41.45;;;37.55;;
57846;SDS011;43675;50.030;21.952;2022-12-26T18:12:44;40.55;;;36.70;;
57846;SDS011;43675;50.030;21.952;2022-12-26T18:15:11;39.00;;;35.40;;
57846;SDS011;43675;50.030;21.952;2022-12-26T18:17:37;42.13;;;38.02;;
57846;SDS011;43675;50.030;21.952;2022-12-26T18:20:03;41.15;;;36.95;;
57846;SDS011;43675;50.030;21.952;2022-12-26T18:22:29;42.65;;;38.85;;
57846;SDS011;43675;50.030;21.952;2022-12-26T18:24:55;41.53;;;37.38;;
57846;SDS011;43675;50.030;21.952;2022-12-26T18:27:25;40.10;;;36.45;;
57846;SDS011;43675;50.030;21.952;2022-12-26T18:29:51;39.80;;;35.92;;
57846;SDS011;43675;50.030;21.952;2022-12-26T18:32:24;40.90;;;37.03;;
57846;SDS011;43675;50.030;21.952;2022-12-26T18:34:52;40.00;;;36.40;;